createdAt,value
2022-09-20T00:00:28.521Z,8.05
2022-09-20T00:03:30.175Z,8.10
2022-09-20T00:06:32.151Z,8.08
2022-09-20T00:09:33.734Z,8.06
2022-09-20T00:12:36.732Z,8.06
2022-09-20T00:15:40.555Z,8.02
2022-09-20T00:18:42.202Z,8.00
2022-09-20T00:21:43.828Z,8.02
2022-09-20T00:24:48.900Z,8.12
2022-09-20T00:27:52.183Z,8.09
2022-09-20T00:30:54.512Z,8.07
2022-09-20T00:33:56.400Z,8.04
2022-09-20T00:36:58.102Z,8.08
2022-09-20T00:39:59.731Z,8.02
2022-09-20T00:43:02.771Z,7.98
2022-09-20T00:46:05.300Z,7.99
2022-09-20T00:49:10.669Z,8.15
2022-09-20T00:52:12.379Z,8.17
2022-09-20T00:55:14.477Z,8.17
2022-09-20T00:58:19.184Z,8.27
2022-09-20T01:01:20.924Z,8.19
2022-09-20T01:04:24.410Z,8.21
2022-09-20T01:07:26.287Z,8.18
2022-09-20T01:10:28.027Z,8.20
2022-09-20T01:13:31.004Z,8.08
2022-09-20T01:16:33.956Z,8.17
2022-09-20T01:19:39.969Z,8.33
2022-09-20T01:22:51.159Z,8.21
2022-09-20T01:26:05.509Z,8.19
2022-09-20T01:29:13.096Z,8.19
2022-09-20T01:32:18.440Z,8.16
2022-09-20T01:35:22.148Z,8.09
2022-09-20T01:38:29.816Z,8.15
2022-09-20T01:41:33.669Z,8.15
2022-09-20T01:44:39.218Z,8.15
2022-09-20T01:47:46.401Z,8.07
2022-09-20T01:50:58.553Z,8.16
2022-09-20T01:54:11.788Z,8.10
2022-09-20T01:57:29.684Z,7.97
2022-09-20T02:00:39.002Z,7.90
2022-09-20T02:03:54.346Z,7.90
2022-09-20T02:07:09.143Z,7.91
2022-09-20T02:10:26.012Z,7.93
2022-09-20T02:13:29.665Z,7.92
2022-09-20T02:16:40.297Z,7.83
2022-09-20T02:19:54.471Z,7.90
2022-09-20T02:23:13.041Z,7.81
2022-09-20T02:26:31.642Z,7.83
2022-09-20T02:29:40.076Z,7.79
2022-09-20T02:33:00.081Z,7.89
2022-09-20T02:36:12.729Z,7.97
2022-09-20T02:39:16.448Z,7.94
2022-09-20T02:42:19.636Z,7.90
2022-09-20T02:45:26.769Z,7.76
2022-09-20T02:48:34.524Z,7.71
2022-09-20T02:51:39.624Z,7.69
2022-09-20T02:54:45.317Z,7.71
2022-09-20T02:57:50.644Z,7.69
2022-09-20T03:00:54.609Z,7.74
2022-09-20T03:04:02.013Z,7.81
2022-09-20T03:07:10.232Z,7.87
2022-09-20T03:10:18.090Z,7.73
2022-09-20T03:13:24.914Z,7.82
2022-09-20T03:16:32.309Z,7.87
2022-09-20T03:19:46.532Z,7.77
2022-09-20T03:22:54.755Z,7.88
2022-09-20T03:25:57.922Z,7.86
2022-09-20T03:29:04.284Z,7.82
2022-09-20T03:32:11.956Z,7.82
2022-09-20T03:35:21.570Z,7.83
2022-09-20T03:38:35.786Z,7.81
2022-09-20T03:41:51.757Z,7.84
2022-09-20T03:45:17.306Z,7.86
2022-09-20T03:48:32.319Z,7.91
2022-09-20T03:51:42.072Z,7.89
2022-09-20T03:55:03.289Z,7.89
2022-09-20T03:58:10.192Z,7.86
2022-09-20T04:01:25.298Z,7.85
2022-09-20T04:04:31.144Z,7.76
2022-09-20T04:07:39.750Z,7.78
2022-09-20T04:10:51.826Z,7.70
2022-09-20T04:13:56.590Z,7.73
2022-09-20T04:17:00.874Z,7.79
2022-09-20T04:20:07.008Z,7.82
2022-09-20T04:23:15.402Z,7.75
2022-09-20T04:26:23.464Z,7.61
2022-09-20T04:29:29.757Z,7.72
2022-09-20T04:32:35.655Z,7.69
2022-09-20T04:35:41.596Z,7.78
2022-09-20T04:38:43.535Z,7.76
2022-09-20T04:42:03.907Z,7.79
2022-09-20T04:45:24.082Z,7.73
2022-09-20T04:48:52.353Z,7.74
2022-09-20T04:52:11.670Z,7.79
2022-09-20T04:55:34.035Z,7.75
2022-09-20T04:58:37.726Z,7.76
2022-09-20T05:01:54.293Z,7.86
2022-09-20T05:05:16.676Z,7.79
2022-09-20T05:08:35.970Z,7.73
2022-09-20T05:11:52.409Z,7.63
2022-09-20T05:15:23.470Z,7.60
2022-09-20T05:18:42.900Z,7.67
2022-09-20T05:22:03.239Z,7.71
2022-09-20T05:25:22.968Z,7.75
2022-09-20T05:28:31.525Z,7.88
2022-09-20T05:31:37.407Z,7.80
2022-09-20T05:34:42.769Z,7.76
2022-09-20T05:37:48.942Z,7.79
2022-09-20T05:40:57.672Z,7.73
2022-09-20T05:44:08.228Z,7.78
2022-09-20T05:47:15.181Z,7.86
2022-09-20T05:50:25.468Z,7.91
2022-09-20T05:53:41.628Z,7.90
2022-09-20T05:56:47.616Z,7.97
2022-09-20T05:59:56.968Z,7.92
2022-09-20T06:03:05.360Z,7.85
2022-09-20T06:06:10.380Z,7.89
2022-09-20T06:09:29.882Z,7.99
2022-09-20T06:12:40.656Z,7.88
2022-09-20T06:15:47.042Z,7.83
2022-09-20T06:18:55.960Z,7.93
2022-09-20T06:22:03.789Z,7.90
2022-09-20T06:25:12.277Z,8.00
2022-09-20T06:28:16.347Z,7.99
2022-09-20T06:31:20.297Z,7.97
2022-09-20T06:34:22.145Z,7.92
2022-09-20T06:37:34.349Z,7.88
2022-09-20T06:40:39.193Z,8.05
2022-09-20T06:43:40.822Z,8.01
2022-09-20T06:46:43.817Z,7.99
2022-09-20T06:49:45.474Z,8.05
2022-09-20T06:52:47.071Z,8.07
2022-09-20T06:55:48.838Z,8.17
2022-09-20T06:58:50.656Z,8.28
2022-09-20T07:01:53.881Z,8.19
2022-09-20T07:04:55.573Z,8.31
2022-09-20T07:07:57.396Z,8.34
2022-09-20T07:11:03.034Z,8.36
2022-09-20T07:14:04.711Z,8.38
2022-09-20T07:17:07.805Z,8.46
2022-09-20T07:20:09.771Z,8.49
2022-09-20T07:23:11.394Z,8.51
2022-09-20T07:26:17.308Z,8.40
2022-09-20T07:29:18.969Z,8.47
2022-09-20T07:32:21.973Z,8.45
2022-09-20T07:35:23.851Z,8.41
2022-09-20T07:38:25.511Z,8.43
2022-09-20T07:41:27.161Z,8.43
2022-09-20T07:44:28.760Z,8.33
2022-09-20T07:47:31.876Z,8.23
2022-09-20T07:50:33.787Z,8.23
2022-09-20T07:53:35.445Z,8.24
2022-09-20T07:56:37.036Z,8.07
2022-09-20T07:59:38.637Z,8.08
2022-09-20T08:02:41.873Z,8.03
2022-09-20T08:05:43.501Z,8.10
2022-09-20T08:08:45.148Z,8.10
2022-09-20T08:11:46.819Z,8.24
2022-09-20T08:14:48.765Z,8.07
2022-09-20T08:17:51.755Z,8.19
2022-09-20T08:20:53.350Z,8.27
2022-09-20T08:23:55.050Z,8.17
2022-09-20T08:26:56.717Z,8.33
2022-09-20T08:29:58.341Z,8.34
2022-09-20T08:33:03.249Z,8.42
2022-09-20T08:36:05.432Z,8.52
2022-09-20T08:42:36.689Z,8.64
2022-09-20T08:45:42.240Z,8.72
2022-09-20T08:48:45.622Z,8.70
2022-09-20T08:51:48.674Z,8.60
2022-09-20T08:54:50.423Z,8.70
2022-09-20T08:57:53.791Z,8.86
2022-09-20T09:00:55.604Z,8.98
2022-09-20T09:04:02.721Z,9.03
2022-09-20T09:07:04.396Z,9.12
2022-09-20T09:10:07.236Z,9.18
2022-09-20T09:13:14.657Z,9.27
2022-09-20T09:16:23.195Z,9.26
2022-09-20T09:19:33.155Z,9.22
2022-09-20T09:22:40.068Z,9.31
2022-09-20T09:25:41.668Z,9.21
2022-09-20T09:28:43.485Z,9.12
2022-09-20T09:31:46.459Z,9.17
2022-09-20T09:34:50.101Z,9.07
2022-09-20T09:37:55.769Z,9.19
2022-09-20T09:40:58.362Z,9.38
2022-09-20T09:44:00.691Z,9.39
2022-09-20T09:47:02.286Z,9.37
2022-09-20T09:50:09.648Z,9.43
2022-09-20T09:53:12.838Z,9.24
2022-09-20T09:56:32.799Z,9.22
2022-09-20T09:59:52.252Z,9.24
2022-09-20T10:03:00.549Z,9.24
2022-09-20T10:06:11.478Z,9.24
2022-09-20T10:09:19.365Z,9.47
2022-09-20T10:12:37.092Z,9.66
2022-09-20T10:15:41.649Z,9.44
2022-09-20T10:18:46.096Z,9.57
2022-09-20T10:21:53.739Z,9.67
2022-09-20T10:25:01.699Z,9.71
2022-09-20T10:28:11.452Z,9.70
2022-09-20T10:31:20.151Z,9.89
2022-09-20T10:34:38.605Z,9.82
2022-09-20T10:37:49.383Z,9.86
2022-09-20T10:40:58.329Z,9.79
2022-09-20T10:44:10.758Z,9.85
2022-09-20T10:47:14.918Z,9.90
2022-09-20T10:50:20.709Z,10.14
2022-09-20T10:53:28.817Z,10.49
2022-09-20T10:56:32.891Z,10.73
2022-09-20T10:59:38.989Z,10.82
2022-09-20T11:02:45.973Z,10.97
2022-09-20T11:05:55.279Z,10.98
2022-09-20T11:08:59.805Z,11.06
2022-09-20T11:12:06.489Z,10.90
2022-09-20T11:15:14.688Z,10.88
2022-09-20T11:18:18.299Z,10.87
2022-09-20T11:21:22.347Z,10.81
2022-09-20T11:24:30.766Z,10.75
2022-09-20T11:27:33.929Z,10.91
2022-09-20T11:30:40.459Z,11.02
2022-09-20T11:33:44.255Z,11.07
2022-09-20T11:36:49.170Z,11.09
2022-09-20T11:39:53.936Z,11.28
2022-09-20T11:42:57.159Z,11.60
2022-09-20T11:46:00.653Z,11.72
2022-09-20T11:49:05.063Z,11.45
2022-09-20T11:52:24.307Z,11.44
2022-09-20T11:55:34.965Z,11.14
2022-09-20T11:58:44.680Z,11.08
2022-09-20T12:01:46.351Z,10.91
2022-09-20T12:04:48.175Z,11.05
2022-09-20T12:07:52.456Z,11.02
2022-09-20T12:10:58.480Z,11.00
2022-09-20T12:14:03.078Z,10.85
2022-09-20T12:17:04.716Z,10.83
2022-09-20T12:20:21.161Z,10.37
2022-09-20T12:23:41.211Z,10.17
2022-09-20T12:26:45.013Z,9.72
2022-09-20T12:29:51.957Z,9.51
2022-09-20T12:32:54.566Z,9.47
2022-09-20T12:36:12.730Z,9.30
2022-09-20T12:39:21.691Z,9.40
2022-09-20T12:42:30.462Z,9.16
2022-09-20T12:45:32.175Z,9.16
2022-09-20T12:48:35.954Z,9.30
2022-09-20T12:51:37.596Z,9.27
2022-09-20T12:54:49.189Z,9.28
2022-09-20T12:57:54.107Z,9.28
2022-09-20T13:01:14.820Z,9.45
2022-09-20T13:04:34.902Z,9.64
2022-09-20T13:07:43.806Z,9.61
2022-09-20T13:10:48.190Z,9.85
2022-09-20T13:13:52.438Z,9.94
2022-09-20T13:16:56.943Z,9.96
2022-09-20T13:19:59.283Z,9.74
2022-09-20T13:23:02.333Z,9.78
2022-09-20T13:26:08.631Z,9.54
2022-09-20T13:29:22.196Z,9.62
2022-09-20T13:32:24.990Z,9.56
2022-09-20T13:35:27.136Z,9.62
2022-09-20T13:38:31.327Z,9.79
2022-09-20T13:41:33.392Z,9.90
2022-09-20T13:44:36.614Z,9.98
2022-09-20T13:47:41.552Z,10.08
2022-09-20T13:50:48.081Z,10.19
2022-09-20T13:53:51.830Z,10.21
2022-09-20T13:56:54.122Z,10.20
2022-09-20T13:59:57.387Z,10.29
2022-09-20T14:02:59.210Z,10.36
2022-09-20T14:06:01.809Z,10.35
2022-09-20T14:09:10.518Z,10.44
2022-09-20T14:12:13.691Z,10.34
2022-09-20T14:15:16.882Z,10.40
2022-09-20T14:18:19.244Z,10.35
2022-09-20T14:21:21.863Z,10.39
2022-09-20T14:24:25.348Z,10.27
2022-09-20T14:27:27.520Z,10.29
2022-09-20T14:30:31.759Z,10.25
2022-09-20T14:33:33.639Z,10.25
2022-09-20T14:36:35.351Z,10.28
2022-09-20T14:39:44.985Z,10.42
2022-09-20T14:42:47.958Z,10.51
2022-09-20T14:45:54.390Z,10.55
2022-09-20T14:49:16.152Z,10.60
2022-09-20T14:52:37.526Z,10.65
2022-09-20T14:55:39.901Z,10.67
2022-09-20T14:59:00.320Z,10.71
2022-09-20T15:02:04.865Z,10.73
2022-09-20T15:05:07.096Z,10.78
2022-09-20T15:08:11.981Z,10.75
2022-09-20T15:11:13.880Z,10.75
2022-09-20T15:14:15.493Z,10.60
2022-09-20T15:17:19.209Z,10.55
2022-09-20T15:20:24.178Z,10.35
2022-09-20T15:23:26.633Z,10.53
2022-09-20T15:26:28.319Z,10.31
2022-09-20T15:29:29.996Z,10.46
2022-09-20T15:32:33.036Z,10.30
2022-09-20T15:35:35.530Z,10.22
2022-09-20T15:38:37.140Z,10.07
2022-09-20T15:41:38.802Z,9.89
2022-09-20T15:44:40.476Z,10.05
2022-09-20T15:47:43.500Z,9.83
2022-09-20T15:50:45.201Z,9.81
2022-09-20T15:53:47.588Z,9.69
2022-09-20T15:56:49.224Z,9.64
2022-09-20T15:59:50.828Z,9.76
2022-09-20T16:02:53.950Z,9.66
2022-09-20T16:06:03.433Z,9.75
2022-09-20T16:09:06.546Z,9.74
2022-09-20T16:12:08.148Z,9.78
2022-09-20T16:15:10.567Z,9.86
2022-09-20T16:18:13.634Z,9.95
2022-09-20T16:21:17.334Z,10.03
2022-09-20T16:24:19.019Z,10.09
2022-09-20T16:27:20.605Z,10.10
2022-09-20T16:30:22.390Z,10.12
2022-09-20T16:33:25.520Z,10.22
2022-09-20T16:36:27.703Z,10.23
2022-09-20T16:39:30.176Z,10.17
2022-09-20T16:42:31.783Z,10.13
2022-09-20T16:45:33.423Z,10.07
2022-09-20T16:48:36.496Z,10.08
2022-09-20T16:51:39.733Z,10.11
2022-09-20T16:54:41.395Z,10.05
2022-09-20T16:57:42.963Z,10.06
2022-09-20T17:00:44.630Z,10.10
2022-09-20T17:03:48.201Z,10.13
2022-09-20T17:06:51.364Z,10.12
2022-09-20T17:09:53.138Z,10.15
2022-09-20T17:12:54.732Z,10.11
2022-09-20T17:16:00.188Z,10.09
2022-09-20T17:19:04.000Z,10.00
2022-09-20T17:22:05.631Z,10.01
2022-09-20T17:25:07.652Z,9.92
2022-09-20T17:28:09.237Z,9.94
2022-09-20T17:31:12.193Z,9.84
2022-09-20T17:34:15.433Z,9.98
2022-09-20T17:37:17.044Z,9.89
2022-09-20T17:40:18.820Z,9.82
2022-09-20T17:43:20.415Z,9.75
2022-09-20T17:46:23.056Z,9.75
2022-09-20T17:49:26.099Z,9.64
2022-09-20T17:52:27.703Z,9.42
2022-09-20T17:55:29.374Z,9.40
2022-09-20T17:58:33.517Z,9.34
2022-09-20T18:01:35.669Z,9.38
2022-09-20T18:04:38.663Z,9.42
2022-09-20T18:07:40.299Z,9.44
2022-09-20T18:10:41.929Z,9.45
2022-09-20T18:13:43.577Z,9.39
2022-09-20T18:16:45.442Z,9.29
2022-09-20T18:19:48.542Z,9.25
2022-09-20T18:22:50.158Z,9.24
2022-09-20T18:25:51.976Z,9.19
2022-09-20T18:28:54.875Z,9.26
2022-09-20T18:31:56.503Z,9.20
2022-09-20T18:34:59.479Z,9.19
2022-09-20T18:38:01.103Z,9.09
2022-09-20T18:41:02.790Z,9.08
2022-09-20T18:44:05.554Z,9.15
2022-09-20T18:47:07.152Z,9.07
2022-09-20T18:50:10.266Z,8.99
2022-09-20T18:53:11.862Z,8.93
2022-09-20T18:56:19.608Z,8.91
2022-09-20T18:59:22.174Z,8.95
2022-09-20T19:02:38.580Z,8.91
2022-09-20T19:05:43.774Z,8.87
2022-09-20T19:08:49.981Z,8.89
2022-09-20T19:11:55.054Z,8.81
2022-09-20T19:15:11.488Z,8.80
2022-09-20T19:18:23.749Z,8.81
2022-09-20T19:21:31.060Z,8.76
2022-09-20T19:24:43.811Z,8.80
2022-09-20T19:27:45.876Z,8.82
2022-09-20T19:30:47.791Z,8.77
2022-09-20T19:33:49.768Z,8.72
2022-09-20T19:37:06.630Z,8.64
2022-09-20T19:40:17.460Z,8.72
2022-09-20T19:43:35.371Z,8.73
2022-09-20T19:46:49.822Z,8.70
2022-09-20T19:49:53.969Z,8.76
2022-09-20T19:52:57.429Z,8.68
2022-09-20T19:56:01.838Z,8.66
2022-09-20T19:59:03.820Z,8.67
2022-09-20T20:02:05.967Z,8.63
2022-09-20T20:05:10.536Z,8.54
2022-09-20T20:08:16.618Z,8.53
2022-09-20T20:11:28.702Z,8.45
2022-09-20T20:14:34.124Z,8.36
2022-09-20T20:17:42.478Z,8.27
2022-09-20T20:20:45.941Z,8.22
2022-09-20T20:24:02.741Z,8.12
2022-09-20T20:27:04.388Z,8.10
2022-09-20T20:30:06.568Z,8.08
2022-09-20T20:33:13.398Z,8.03
2022-09-20T20:36:16.230Z,8.08
2022-09-20T20:39:19.229Z,8.15
2022-09-20T20:42:20.842Z,8.11
2022-09-20T20:45:22.453Z,8.11
2022-09-20T20:48:24.127Z,8.18
2022-09-20T20:51:25.760Z,8.00
2022-09-20T20:54:28.755Z,7.94
2022-09-20T20:57:30.358Z,7.90
2022-09-20T21:00:32.004Z,7.72
2022-09-20T21:03:33.658Z,7.84
2022-09-20T21:06:36.748Z,7.85
2022-09-20T21:09:39.748Z,7.76
2022-09-20T21:12:41.361Z,7.79
2022-09-20T21:15:43.031Z,7.69
2022-09-20T21:18:45.622Z,7.64
2022-09-20T21:21:47.275Z,7.66
2022-09-20T21:24:50.253Z,7.68
2022-09-20T21:27:53.503Z,7.72
2022-09-20T21:30:55.603Z,7.68
2022-09-20T21:33:57.649Z,7.72
2022-09-20T21:36:59.352Z,7.72
2022-09-20T21:40:02.492Z,7.62
2022-09-20T21:43:04.137Z,7.55
2022-09-20T21:46:09.664Z,7.61
2022-09-20T21:49:12.068Z,7.69
2022-09-20T21:52:13.661Z,7.71
2022-09-20T21:55:16.714Z,7.67
2022-09-20T21:58:18.300Z,7.63
2022-09-20T22:01:20.683Z,7.65
2022-09-20T22:04:22.267Z,7.69
2022-09-20T22:07:23.900Z,7.68
2022-09-20T22:10:26.928Z,7.68
2022-09-20T22:13:28.522Z,7.57
2022-09-20T22:16:31.313Z,7.54
2022-09-20T22:19:32.919Z,7.57
2022-09-20T22:22:34.562Z,7.53
2022-09-20T22:25:37.548Z,7.37
2022-09-20T22:28:39.486Z,7.39
2022-09-20T22:31:42.095Z,7.28
2022-09-20T22:34:43.713Z,7.42
2022-09-20T22:37:45.369Z,7.32
2022-09-20T22:40:55.132Z,7.20
2022-09-20T22:43:56.925Z,7.28
2022-09-20T22:46:58.558Z,7.15
2022-09-20T22:50:00.189Z,7.25
2022-09-20T22:53:01.786Z,7.22
2022-09-20T22:56:06.103Z,7.12
2022-09-20T22:59:10.411Z,7.17
2022-09-20T23:02:12.020Z,7.10
2022-09-20T23:05:13.724Z,7.09
2022-09-20T23:08:15.316Z,6.97
2022-09-20T23:11:18.524Z,7.02
2022-09-20T23:14:21.227Z,6.90
2022-09-20T23:17:22.876Z,6.89
2022-09-20T23:20:24.546Z,6.91
2022-09-20T23:23:26.175Z,6.97
2022-09-20T23:26:29.996Z,6.96
2022-09-20T23:29:31.714Z,6.94
2022-09-20T23:32:33.346Z,6.97
2022-09-20T23:35:35.033Z,6.88
2022-09-20T23:38:36.709Z,6.92
2022-09-20T23:41:40.060Z,6.92
2022-09-20T23:44:41.685Z,6.89
2022-09-20T23:47:46.997Z,6.96
2022-09-20T23:50:48.619Z,6.90
2022-09-20T23:53:50.397Z,6.78
2022-09-20T23:56:53.372Z,6.66
2022-09-20T23:59:54.971Z,6.46
